sensor_id;sensor_type;location;lat;lon;timestamp;P1;durP1;ratioP1;P2;durP2;ratioP2
21243;SDS011;10780;50.942;4.028;2023-04-19T00:01:21;32.33;;;22.25;;
21243;SDS011;10780;50.942;4.028;2023-04-19T00:03:48;34.08;;;22.35;;
21243;SDS011;10780;50.942;4.028;2023-04-19T00:06:14;41.92;;;23.77;;
21243;SDS011;10780;50.942;4.028;2023-04-19T00:08:40;33.58;;;22.10;;
21243;SDS011;10780;50.942;4.028;2023-04-19T00:11:07;33.38;;;22.77;;
21243;SDS011;10780;50.942;4.028;2023-04-19T00:13:33;34.42;;;22.48;;
21243;SDS011;10780;50.942;4.028;2023-04-19T00:15:58;36.10;;;23.88;;
21243;SDS011;10780;50.942;4.028;2023-04-19T00:18:25;35.40;;;23.15;;
21243;SDS011;10780;50.942;4.028;2023-04-19T00:20:50;34.28;;;23.15;;
21243;SDS011;10780;50.942;4.028;2023-04-19T00:23:16;36.08;;;22.98;;
21243;SDS011;10780;50.942;4.028;2023-04-19T00:25:42;37.88;;;24.52;;
21243;SDS011;10780;50.942;4.028;2023-04-19T00:28:10;34.88;;;22.40;;
21243;SDS011;10780;50.942;4.028;2023-04-19T00:30:35;37.22;;;23.67;;
21243;SDS011;10780;50.942;4.028;2023-04-19T00:33:01;36.35;;;23.55;;
21243;SDS011;10780;50.942;4.028;2023-04-19T00:35:27;34.42;;;21.67;;
21243;SDS011;10780;50.942;4.028;2023-04-19T00:37:52;37.03;;;23.60;;
21243;SDS011;10780;50.942;4.028;2023-04-19T00:40:18;35.70;;;22.65;;
21243;SDS011;10780;50.942;4.028;2023-04-19T00:42:44;37.00;;;23.98;;
21243;SDS011;10780;50.942;4.028;2023-04-19T00:45:10;32.72;;;22.35;;
21243;SDS011;10780;50.942;4.028;2023-04-19T00:47:36;35.35;;;23.65;;
21243;SDS011;10780;50.942;4.028;2023-04-19T00:50:02;33.60;;;22.83;;
21243;SDS011;10780;50.942;4.028;2023-04-19T00:52:29;35.42;;;23.83;;
21243;SDS011;10780;50.942;4.028;2023-04-19T00:54:56;37.45;;;23.73;;
21243;SDS011;10780;50.942;4.028;2023-04-19T00:57:23;35.42;;;22.98;;
21243;SDS011;10780;50.942;4.028;2023-04-19T00:59:49;36.63;;;22.88;;
21243;SDS011;10780;50.942;4.028;2023-04-19T01:02:15;36.55;;;23.40;;
21243;SDS011;10780;50.942;4.028;2023-04-19T01:04:41;34.33;;;23.30;;
21243;SDS011;10780;50.942;4.028;2023-04-19T01:07:08;37.60;;;23.13;;
21243;SDS011;10780;50.942;4.028;2023-04-19T01:09:34;35.63;;;23.08;;
21243;SDS011;10780;50.942;4.028;2023-04-19T01:12:00;37.08;;;23.60;;
21243;SDS011;10780;50.942;4.028;2023-04-19T01:14:27;35.63;;;23.73;;
21243;SDS011;10780;50.942;4.028;2023-04-19T01:16:53;36.38;;;24.42;;
21243;SDS011;10780;50.942;4.028;2023-04-19T01:19:18;37.45;;;23.77;;
21243;SDS011;10780;50.942;4.028;2023-04-19T01:21:45;36.35;;;23.23;;
21243;SDS011;10780;50.942;4.028;2023-04-19T01:24:11;40.17;;;24.40;;
21243;SDS011;10780;50.942;4.028;2023-04-19T01:26:36;38.22;;;24.42;;
21243;SDS011;10780;50.942;4.028;2023-04-19T01:29:02;39.65;;;23.05;;
21243;SDS011;10780;50.942;4.028;2023-04-19T01:31:28;36.97;;;24.08;;
21243;SDS011;10780;50.942;4.028;2023-04-19T01:33:53;37.97;;;23.33;;
21243;SDS011;10780;50.942;4.028;2023-04-19T01:36:19;40.42;;;24.33;;
21243;SDS011;10780;50.942;4.028;2023-04-19T01:38:45;42.65;;;24.52;;
21243;SDS011;10780;50.942;4.028;2023-04-19T01:41:11;40.22;;;24.70;;
21243;SDS011;10780;50.942;4.028;2023-04-19T01:43:37;37.88;;;23.50;;
21243;SDS011;10780;50.942;4.028;2023-04-19T01:46:03;39.60;;;24.90;;
21243;SDS011;10780;50.942;4.028;2023-04-19T01:48:29;39.25;;;24.73;;
21243;SDS011;10780;50.942;4.028;2023-04-19T01:50:54;36.67;;;23.98;;
21243;SDS011;10780;50.942;4.028;2023-04-19T01:53:20;37.67;;;24.60;;
21243;SDS011;10780;50.942;4.028;2023-04-19T01:55:46;38.28;;;24.05;;
21243;SDS011;10780;50.942;4.028;2023-04-19T01:58:11;36.67;;;24.48;;
21243;SDS011;10780;50.942;4.028;2023-04-19T02:00:37;38.35;;;24.90;;
21243;SDS011;10780;50.942;4.028;2023-04-19T02:03:02;39.65;;;23.88;;
21243;SDS011;10780;50.942;4.028;2023-04-19T02:05:28;37.15;;;23.95;;
21243;SDS011;10780;50.942;4.028;2023-04-19T02:07:53;40.35;;;25.30;;
21243;SDS011;10780;50.942;4.028;2023-04-19T02:10:19;40.70;;;25.73;;
21243;SDS011;10780;50.942;4.028;2023-04-19T02:12:45;38.70;;;24.23;;
21243;SDS011;10780;50.942;4.028;2023-04-19T02:15:10;41.15;;;25.38;;
21243;SDS011;10780;50.942;4.028;2023-04-19T02:17:36;37.72;;;24.10;;
21243;SDS011;10780;50.942;4.028;2023-04-19T02:20:03;39.22;;;25.23;;
21243;SDS011;10780;50.942;4.028;2023-04-19T02:22:29;39.42;;;26.13;;
21243;SDS011;10780;50.942;4.028;2023-04-19T02:24:55;39.17;;;24.63;;
21243;SDS011;10780;50.942;4.028;2023-04-19T02:27:21;36.55;;;24.40;;
21243;SDS011;10780;50.942;4.028;2023-04-19T02:29:46;37.53;;;23.85;;
21243;SDS011;10780;50.942;4.028;2023-04-19T02:32:12;36.88;;;24.15;;
21243;SDS011;10780;50.942;4.028;2023-04-19T02:34:37;41.40;;;25.52;;
21243;SDS011;10780;50.942;4.028;2023-04-19T02:37:03;37.42;;;25.13;;
21243;SDS011;10780;50.942;4.028;2023-04-19T02:39:29;37.17;;;24.42;;
21243;SDS011;10780;50.942;4.028;2023-04-19T02:41:55;38.90;;;24.98;;
21243;SDS011;10780;50.942;4.028;2023-04-19T02:44:21;39.22;;;25.17;;
21243;SDS011;10780;50.942;4.028;2023-04-19T02:46:48;41.88;;;25.00;;
21243;SDS011;10780;50.942;4.028;2023-04-19T02:49:14;37.15;;;24.55;;
21243;SDS011;10780;50.942;4.028;2023-04-19T02:51:40;39.70;;;24.48;;
21243;SDS011;10780;50.942;4.028;2023-04-19T02:54:05;41.10;;;25.48;;
21243;SDS011;10780;50.942;4.028;2023-04-19T02:56:31;41.40;;;25.25;;
21243;SDS011;10780;50.942;4.028;2023-04-19T02:58:59;40.80;;;25.38;;
21243;SDS011;10780;50.942;4.028;2023-04-19T03:01:25;37.20;;;24.60;;
21243;SDS011;10780;50.942;4.028;2023-04-19T03:03:51;40.70;;;24.55;;
21243;SDS011;10780;50.942;4.028;2023-04-19T03:06:16;40.03;;;24.40;;
21243;SDS011;10780;50.942;4.028;2023-04-19T03:08:42;38.83;;;24.77;;
21243;SDS011;10780;50.942;4.028;2023-04-19T03:11:09;38.03;;;25.10;;
21243;SDS011;10780;50.942;4.028;2023-04-19T03:13:35;40.83;;;25.63;;
21243;SDS011;10780;50.942;4.028;2023-04-19T03:16:01;38.85;;;24.85;;
21243;SDS011;10780;50.942;4.028;2023-04-19T03:18:27;38.58;;;24.08;;
21243;SDS011;10780;50.942;4.028;2023-04-19T03:20:53;37.13;;;24.20;;
21243;SDS011;10780;50.942;4.028;2023-04-19T03:23:19;39.38;;;25.58;;
21243;SDS011;10780;50.942;4.028;2023-04-19T03:25:45;36.33;;;24.20;;
21243;SDS011;10780;50.942;4.028;2023-04-19T03:28:10;39.92;;;25.77;;
21243;SDS011;10780;50.942;4.028;2023-04-19T03:30:36;38.42;;;25.05;;
21243;SDS011;10780;50.942;4.028;2023-04-19T03:33:01;34.80;;;23.77;;
21243;SDS011;10780;50.942;4.028;2023-04-19T03:35:27;36.15;;;23.88;;
21243;SDS011;10780;50.942;4.028;2023-04-19T03:37:54;37.90;;;24.80;;
21243;SDS011;10780;50.942;4.028;2023-04-19T03:40:20;34.72;;;24.00;;
21243;SDS011;10780;50.942;4.028;2023-04-19T03:42:46;41.00;;;24.50;;
21243;SDS011;10780;50.942;4.028;2023-04-19T03:45:11;35.30;;;22.77;;
21243;SDS011;10780;50.942;4.028;2023-04-19T03:47:37;35.85;;;24.33;;
21243;SDS011;10780;50.942;4.028;2023-04-19T03:50:02;36.67;;;25.08;;
21243;SDS011;10780;50.942;4.028;2023-04-19T03:52:28;35.22;;;24.40;;
21243;SDS011;10780;50.942;4.028;2023-04-19T03:54:54;33.20;;;23.20;;
21243;SDS011;10780;50.942;4.028;2023-04-19T03:57:19;36.90;;;23.65;;
21243;SDS011;10780;50.942;4.028;2023-04-19T03:59:46;35.20;;;24.05;;
21243;SDS011;10780;50.942;4.028;2023-04-19T04:02:12;36.97;;;24.80;;
21243;SDS011;10780;50.942;4.028;2023-04-19T04:04:37;32.97;;;23.40;;
21243;SDS011;10780;50.942;4.028;2023-04-19T04:07:03;38.67;;;24.92;;
21243;SDS011;10780;50.942;4.028;2023-04-19T04:09:28;34.63;;;23.38;;
21243;SDS011;10780;50.942;4.028;2023-04-19T04:11:54;36.33;;;23.40;;
21243;SDS011;10780;50.942;4.028;2023-04-19T04:14:20;37.05;;;24.17;;
21243;SDS011;10780;50.942;4.028;2023-04-19T04:16:46;35.90;;;24.00;;
21243;SDS011;10780;50.942;4.028;2023-04-19T04:19:11;38.40;;;25.42;;
21243;SDS011;10780;50.942;4.028;2023-04-19T04:21:37;36.65;;;23.35;;
21243;SDS011;10780;50.942;4.028;2023-04-19T04:24:02;36.97;;;24.38;;
21243;SDS011;10780;50.942;4.028;2023-04-19T04:26:28;36.65;;;24.05;;
21243;SDS011;10780;50.942;4.028;2023-04-19T04:28:58;36.75;;;24.00;;
21243;SDS011;10780;50.942;4.028;2023-04-19T04:31:25;35.38;;;24.45;;
21243;SDS011;10780;50.942;4.028;2023-04-19T04:33:51;38.03;;;24.35;;
21243;SDS011;10780;50.942;4.028;2023-04-19T04:36:18;36.53;;;24.27;;
21243;SDS011;10780;50.942;4.028;2023-04-19T04:38:44;38.85;;;24.63;;
21243;SDS011;10780;50.942;4.028;2023-04-19T04:41:10;38.85;;;25.10;;
21243;SDS011;10780;50.942;4.028;2023-04-19T04:43:36;42.10;;;25.48;;
21243;SDS011;10780;50.942;4.028;2023-04-19T04:46:02;35.72;;;23.95;;
21243;SDS011;10780;50.942;4.028;2023-04-19T04:48:28;38.92;;;24.77;;
21243;SDS011;10780;50.942;4.028;2023-04-19T04:50:55;36.55;;;24.45;;
21243;SDS011;10780;50.942;4.028;2023-04-19T04:53:21;36.42;;;23.13;;
21243;SDS011;10780;50.942;4.028;2023-04-19T04:55:47;40.63;;;24.80;;
21243;SDS011;10780;50.942;4.028;2023-04-19T04:58:13;38.25;;;25.55;;
21243;SDS011;10780;50.942;4.028;2023-04-19T05:00:38;38.13;;;24.90;;
21243;SDS011;10780;50.942;4.028;2023-04-19T05:03:04;37.72;;;24.35;;
21243;SDS011;10780;50.942;4.028;2023-04-19T05:05:30;37.35;;;24.20;;
21243;SDS011;10780;50.942;4.028;2023-04-19T05:07:56;39.47;;;24.30;;
21243;SDS011;10780;50.942;4.028;2023-04-19T05:10:21;37.03;;;24.30;;
21243;SDS011;10780;50.942;4.028;2023-04-19T05:12:47;40.80;;;24.90;;
21243;SDS011;10780;50.942;4.028;2023-04-19T05:15:13;39.13;;;24.13;;
21243;SDS011;10780;50.942;4.028;2023-04-19T05:17:38;37.53;;;24.02;;
21243;SDS011;10780;50.942;4.028;2023-04-19T05:20:04;39.70;;;25.13;;
21243;SDS011;10780;50.942;4.028;2023-04-19T05:22:30;40.13;;;24.67;;
21243;SDS011;10780;50.942;4.028;2023-04-19T05:24:56;39.53;;;24.58;;
21243;SDS011;10780;50.942;4.028;2023-04-19T05:27:21;38.58;;;25.15;;
21243;SDS011;10780;50.942;4.028;2023-04-19T05:29:47;37.53;;;24.50;;
21243;SDS011;10780;50.942;4.028;2023-04-19T05:32:15;42.30;;;24.63;;
21243;SDS011;10780;50.942;4.028;2023-04-19T05:34:40;37.72;;;23.85;;
21243;SDS011;10780;50.942;4.028;2023-04-19T05:37:06;38.05;;;25.50;;
21243;SDS011;10780;50.942;4.028;2023-04-19T05:39:32;37.17;;;23.67;;
21243;SDS011;10780;50.942;4.028;2023-04-19T05:41:57;37.60;;;24.55;;
21243;SDS011;10780;50.942;4.028;2023-04-19T05:44:24;39.15;;;24.70;;
21243;SDS011;10780;50.942;4.028;2023-04-19T05:46:50;37.42;;;25.25;;
21243;SDS011;10780;50.942;4.028;2023-04-19T05:49:15;36.78;;;23.30;;
21243;SDS011;10780;50.942;4.028;2023-04-19T05:51:41;35.42;;;23.63;;
21243;SDS011;10780;50.942;4.028;2023-04-19T05:54:06;36.10;;;24.27;;
21243;SDS011;10780;50.942;4.028;2023-04-19T05:56:36;40.33;;;24.77;;
21243;SDS011;10780;50.942;4.028;2023-04-19T05:59:02;41.55;;;26.35;;
21243;SDS011;10780;50.942;4.028;2023-04-19T06:01:28;37.28;;;24.95;;
21243;SDS011;10780;50.942;4.028;2023-04-19T06:03:54;33.85;;;23.65;;
21243;SDS011;10780;50.942;4.028;2023-04-19T06:06:22;37.95;;;24.27;;
21243;SDS011;10780;50.942;4.028;2023-04-19T06:08:48;37.20;;;23.75;;
21243;SDS011;10780;50.942;4.028;2023-04-19T06:11:14;36.42;;;22.95;;
21243;SDS011;10780;50.942;4.028;2023-04-19T06:13:40;37.58;;;24.48;;
21243;SDS011;10780;50.942;4.028;2023-04-19T06:16:07;35.75;;;24.92;;
21243;SDS011;10780;50.942;4.028;2023-04-19T06:18:33;35.85;;;24.45;;
21243;SDS011;10780;50.942;4.028;2023-04-19T06:20:59;34.72;;;23.23;;
21243;SDS011;10780;50.942;4.028;2023-04-19T06:23:24;33.65;;;23.88;;
21243;SDS011;10780;50.942;4.028;2023-04-19T06:25:51;33.67;;;23.48;;
21243;SDS011;10780;50.942;4.028;2023-04-19T06:28:17;34.05;;;23.52;;
21243;SDS011;10780;50.942;4.028;2023-04-19T06:30:43;37.22;;;24.52;;
21243;SDS011;10780;50.942;4.028;2023-04-19T06:33:09;35.88;;;23.30;;
21243;SDS011;10780;50.942;4.028;2023-04-19T06:35:35;35.75;;;24.13;;
21243;SDS011;10780;50.942;4.028;2023-04-19T06:38:00;32.90;;;23.40;;
21243;SDS011;10780;50.942;4.028;2023-04-19T06:40:26;33.65;;;23.35;;
21243;SDS011;10780;50.942;4.028;2023-04-19T06:42:53;32.90;;;21.63;;
21243;SDS011;10780;50.942;4.028;2023-04-19T06:45:19;31.70;;;22.33;;
21243;SDS011;10780;50.942;4.028;2023-04-19T06:47:45;30.80;;;21.00;;
21243;SDS011;10780;50.942;4.028;2023-04-19T06:50:11;30.90;;;22.27;;
21243;SDS011;10780;50.942;4.028;2023-04-19T06:52:37;30.23;;;20.48;;
21243;SDS011;10780;50.942;4.028;2023-04-19T06:55:04;28.80;;;19.70;;
21243;SDS011;10780;50.942;4.028;2023-04-19T06:57:31;29.40;;;20.38;;
21243;SDS011;10780;50.942;4.028;2023-04-19T06:59:57;30.20;;;21.20;;
21243;SDS011;10780;50.942;4.028;2023-04-19T07:02:23;30.77;;;20.48;;
21243;SDS011;10780;50.942;4.028;2023-04-19T07:04:48;33.25;;;20.98;;
21243;SDS011;10780;50.942;4.028;2023-04-19T07:07:14;30.50;;;20.50;;
21243;SDS011;10780;50.942;4.028;2023-04-19T07:09:40;29.52;;;20.40;;
21243;SDS011;10780;50.942;4.028;2023-04-19T07:12:06;29.05;;;20.05;;
21243;SDS011;10780;50.942;4.028;2023-04-19T07:14:32;30.55;;;20.88;;
21243;SDS011;10780;50.942;4.028;2023-04-19T07:16:57;27.63;;;19.70;;
21243;SDS011;10780;50.942;4.028;2023-04-19T07:19:23;29.85;;;20.25;;
21243;SDS011;10780;50.942;4.028;2023-04-19T07:21:50;30.23;;;20.50;;
21243;SDS011;10780;50.942;4.028;2023-04-19T07:24:16;30.25;;;20.65;;
21243;SDS011;10780;50.942;4.028;2023-04-19T07:26:42;29.52;;;20.33;;
21243;SDS011;10780;50.942;4.028;2023-04-19T07:29:08;25.92;;;18.63;;
21243;SDS011;10780;50.942;4.028;2023-04-19T07:31:34;29.92;;;20.40;;
21243;SDS011;10780;50.942;4.028;2023-04-19T07:34:00;26.65;;;19.45;;
21243;SDS011;10780;50.942;4.028;2023-04-19T07:36:26;30.10;;;20.08;;
21243;SDS011;10780;50.942;4.028;2023-04-19T07:38:52;28.17;;;19.10;;
21243;SDS011;10780;50.942;4.028;2023-04-19T07:41:17;25.55;;;19.00;;
21243;SDS011;10780;50.942;4.028;2023-04-19T07:43:43;26.38;;;18.90;;
21243;SDS011;10780;50.942;4.028;2023-04-19T07:46:10;26.60;;;18.38;;
21243;SDS011;10780;50.942;4.028;2023-04-19T07:48:37;24.67;;;18.40;;
21243;SDS011;10780;50.942;4.028;2023-04-19T07:51:10;25.20;;;17.67;;
21243;SDS011;10780;50.942;4.028;2023-04-19T07:53:38;24.00;;;18.15;;
21243;SDS011;10780;50.942;4.028;2023-04-19T07:56:07;25.40;;;17.98;;
21243;SDS011;10780;50.942;4.028;2023-04-19T07:58:34;23.80;;;17.40;;
21243;SDS011;10780;50.942;4.028;2023-04-19T08:01:00;23.08;;;17.73;;
21243;SDS011;10780;50.942;4.028;2023-04-19T08:03:27;23.15;;;17.70;;
21243;SDS011;10780;50.942;4.028;2023-04-19T08:05:53;21.83;;;17.77;;
21243;SDS011;10780;50.942;4.028;2023-04-19T08:08:19;25.30;;;18.23;;
21243;SDS011;10780;50.942;4.028;2023-04-19T08:10:45;27.90;;;18.20;;
21243;SDS011;10780;50.942;4.028;2023-04-19T08:13:11;29.52;;;20.67;;
21243;SDS011;10780;50.942;4.028;2023-04-19T08:15:37;22.88;;;17.80;;
21243;SDS011;10780;50.942;4.028;2023-04-19T08:18:03;23.33;;;18.25;;
21243;SDS011;10780;50.942;4.028;2023-04-19T08:20:30;23.75;;;17.45;;
21243;SDS011;10780;50.942;4.028;2023-04-19T08:22:56;21.80;;;14.93;;
21243;SDS011;10780;50.942;4.028;2023-04-19T08:25:23;23.67;;;16.70;;
21243;SDS011;10780;50.942;4.028;2023-04-19T08:27:55;21.75;;;16.50;;
21243;SDS011;10780;50.942;4.028;2023-04-19T08:30:22;20.65;;;15.18;;
21243;SDS011;10780;50.942;4.028;2023-04-19T08:32:48;22.15;;;14.80;;
21243;SDS011;10780;50.942;4.028;2023-04-19T08:35:15;23.13;;;16.85;;
21243;SDS011;10780;50.942;4.028;2023-04-19T08:37:41;24.17;;;15.73;;
21243;SDS011;10780;50.942;4.028;2023-04-19T08:40:07;25.88;;;15.57;;
21243;SDS011;10780;50.942;4.028;2023-04-19T08:42:36;19.85;;;15.57;;
21243;SDS011;10780;50.942;4.028;2023-04-19T08:45:02;22.73;;;15.88;;
21243;SDS011;10780;50.942;4.028;2023-04-19T08:47:32;18.60;;;15.15;;
21243;SDS011;10780;50.942;4.028;2023-04-19T08:49:59;21.63;;;15.68;;
21243;SDS011;10780;50.942;4.028;2023-04-19T08:52:26;21.00;;;16.60;;
21243;SDS011;10780;50.942;4.028;2023-04-19T08:54:53;22.67;;;15.73;;
21243;SDS011;10780;50.942;4.028;2023-04-19T08:57:19;22.35;;;16.73;;
21243;SDS011;10780;50.942;4.028;2023-04-19T08:59:44;20.70;;;16.13;;
21243;SDS011;10780;50.942;4.028;2023-04-19T09:02:14;22.92;;;16.88;;
21243;SDS011;10780;50.942;4.028;2023-04-19T09:04:40;22.40;;;15.93;;
21243;SDS011;10780;50.942;4.028;2023-04-19T09:07:06;21.73;;;15.57;;
21243;SDS011;10780;50.942;4.028;2023-04-19T09:09:34;20.27;;;15.70;;
21243;SDS011;10780;50.942;4.028;2023-04-19T09:12:00;19.02;;;15.90;;
21243;SDS011;10780;50.942;4.028;2023-04-19T09:14:27;20.48;;;16.30;;
21243;SDS011;10780;50.942;4.028;2023-04-19T09:16:53;19.70;;;15.55;;
21243;SDS011;10780;50.942;4.028;2023-04-19T09:19:48;19.58;;;14.85;;
21243;SDS011;10780;50.942;4.028;2023-04-19T09:22:14;17.77;;;15.60;;
21243;SDS011;10780;50.942;4.028;2023-04-19T09:24:42;18.98;;;15.45;;
21243;SDS011;10780;50.942;4.028;2023-04-19T09:27:07;19.30;;;15.10;;
21243;SDS011;10780;50.942;4.028;2023-04-19T09:29:36;19.38;;;14.63;;
21243;SDS011;10780;50.942;4.028;2023-04-19T09:32:02;17.85;;;14.80;;
21243;SDS011;10780;50.942;4.028;2023-04-19T09:34:28;18.95;;;14.60;;
21243;SDS011;10780;50.942;4.028;2023-04-19T09:36:55;17.13;;;13.80;;
21243;SDS011;10780;50.942;4.028;2023-04-19T09:39:30;17.20;;;14.32;;
21243;SDS011;10780;50.942;4.028;2023-04-19T09:41:57;19.30;;;13.65;;
21243;SDS011;10780;50.942;4.028;2023-04-19T09:44:23;18.33;;;13.80;;
21243;SDS011;10780;50.942;4.028;2023-04-19T09:46:49;14.88;;;13.27;;
21243;SDS011;10780;50.942;4.028;2023-04-19T09:49:23;16.48;;;12.18;;
21243;SDS011;10780;50.942;4.028;2023-04-19T09:54:16;15.07;;;11.90;;
21243;SDS011;10780;50.942;4.028;2023-04-19T09:56:44;13.15;;;11.30;;
21243;SDS011;10780;50.942;4.028;2023-04-19T09:59:10;13.70;;;10.77;;
21243;SDS011;10780;50.942;4.028;2023-04-19T10:04:03;12.75;;;10.10;;
21243;SDS011;10780;50.942;4.028;2023-04-19T10:06:31;12.02;;;10.32;;
21243;SDS011;10780;50.942;4.028;2023-04-19T10:08:59;11.75;;;8.85;;
21243;SDS011;10780;50.942;4.028;2023-04-19T10:11:32;11.98;;;9.75;;
21243;SDS011;10780;50.942;4.028;2023-04-19T10:14:03;12.20;;;9.55;;
21243;SDS011;10780;50.942;4.028;2023-04-19T10:16:31;13.52;;;9.77;;
21243;SDS011;10780;50.942;4.028;2023-04-19T10:18:57;10.90;;;8.60;;
21243;SDS011;10780;50.942;4.028;2023-04-19T10:21:25;12.63;;;9.32;;
21243;SDS011;10780;50.942;4.028;2023-04-19T10:23:52;11.63;;;9.55;;
21243;SDS011;10780;50.942;4.028;2023-04-19T10:26:19;10.95;;;8.93;;
21243;SDS011;10780;50.942;4.028;2023-04-19T10:28:46;12.82;;;9.52;;
21243;SDS011;10780;50.942;4.028;2023-04-19T10:31:12;11.73;;;8.93;;
21243;SDS011;10780;50.942;4.028;2023-04-19T10:33:38;10.32;;;8.48;;
21243;SDS011;10780;50.942;4.028;2023-04-19T10:36:07;10.68;;;8.57;;
21243;SDS011;10780;50.942;4.028;2023-04-19T10:38:38;14.00;;;8.90;;
21243;SDS011;10780;50.942;4.028;2023-04-19T10:41:11;10.90;;;8.57;;
21243;SDS011;10780;50.942;4.028;2023-04-19T10:43:38;10.82;;;8.52;;
21243;SDS011;10780;50.942;4.028;2023-04-19T10:46:06;10.18;;;8.88;;
21243;SDS011;10780;50.942;4.028;2023-04-19T10:48:35;13.20;;;8.48;;
21243;SDS011;10780;50.942;4.028;2023-04-19T10:51:14;14.73;;;8.88;;
21243;SDS011;10780;50.942;4.028;2023-04-19T10:53:56;8.50;;;7.53;;
21243;SDS011;10780;50.942;4.028;2023-04-19T11:09:36;9.85;;;8.15;;
21243;SDS011;10780;50.942;4.028;2023-04-19T11:12:07;12.55;;;8.88;;
21243;SDS011;10780;50.942;4.028;2023-04-19T11:14:36;11.95;;;8.95;;
21243;SDS011;10780;50.942;4.028;2023-04-19T11:19:55;11.57;;;8.50;;
21243;SDS011;10780;50.942;4.028;2023-04-19T11:24:50;11.13;;;9.57;;
21243;SDS011;10780;50.942;4.028;2023-04-19T11:27:16;11.98;;;9.10;;
21243;SDS011;10780;50.942;4.028;2023-04-19T11:29:42;11.65;;;9.00;;
21243;SDS011;10780;50.942;4.028;2023-04-19T11:32:07;11.70;;;9.55;;
21243;SDS011;10780;50.942;4.028;2023-04-19T11:34:37;12.95;;;8.90;;
21243;SDS011;10780;50.942;4.028;2023-04-19T11:37:04;10.63;;;8.85;;
21243;SDS011;10780;50.942;4.028;2023-04-19T11:39:30;10.68;;;8.52;;
21243;SDS011;10780;50.942;4.028;2023-04-19T11:41:55;13.88;;;9.60;;
21243;SDS011;10780;50.942;4.028;2023-04-19T11:44:21;9.82;;;8.05;;
21243;SDS011;10780;50.942;4.028;2023-04-19T11:47:00;11.40;;;9.27;;
21243;SDS011;10780;50.942;4.028;2023-04-19T11:49:31;11.48;;;8.95;;
21243;SDS011;10780;50.942;4.028;2023-04-19T11:52:01;20.17;;;9.93;;
21243;SDS011;10780;50.942;4.028;2023-04-19T11:54:29;12.43;;;9.05;;
21243;SDS011;10780;50.942;4.028;2023-04-19T11:59:33;13.00;;;9.27;;
21243;SDS011;10780;50.942;4.028;2023-04-19T12:02:18;13.90;;;9.65;;
21243;SDS011;10780;50.942;4.028;2023-04-19T12:04:44;14.18;;;9.73;;
21243;SDS011;10780;50.942;4.028;2023-04-19T12:07:09;12.52;;;9.40;;
21243;SDS011;10780;50.942;4.028;2023-04-19T12:09:35;11.55;;;9.27;;
21243;SDS011;10780;50.942;4.028;2023-04-19T12:12:01;11.25;;;9.82;;
21243;SDS011;10780;50.942;4.028;2023-04-19T12:14:27;13.70;;;10.05;;
21243;SDS011;10780;50.942;4.028;2023-04-19T12:19:35;10.52;;;8.75;;
21243;SDS011;10780;50.942;4.028;2023-04-19T12:22:12;12.80;;;9.90;;
21243;SDS011;10780;50.942;4.028;2023-04-19T12:24:44;17.40;;;10.63;;
21243;SDS011;10780;50.942;4.028;2023-04-19T12:27:10;16.83;;;10.82;;
21243;SDS011;10780;50.942;4.028;2023-04-19T12:29:36;13.05;;;9.38;;
21243;SDS011;10780;50.942;4.028;2023-04-19T12:32:02;14.52;;;10.20;;
21243;SDS011;10780;50.942;4.028;2023-04-19T12:34:28;12.77;;;10.23;;
21243;SDS011;10780;50.942;4.028;2023-04-19T12:36:54;11.80;;;9.55;;
21243;SDS011;10780;50.942;4.028;2023-04-19T12:39:20;11.30;;;9.40;;
21243;SDS011;10780;50.942;4.028;2023-04-19T12:41:47;11.77;;;9.45;;
21243;SDS011;10780;50.942;4.028;2023-04-19T12:44:14;13.00;;;8.85;;
21243;SDS011;10780;50.942;4.028;2023-04-19T12:46:40;11.32;;;9.27;;
21243;SDS011;10780;50.942;4.028;2023-04-19T12:49:06;12.85;;;9.40;;
21243;SDS011;10780;50.942;4.028;2023-04-19T12:51:31;9.60;;;8.60;;
21243;SDS011;10780;50.942;4.028;2023-04-19T12:53:57;10.23;;;7.95;;
21243;SDS011;10780;50.942;4.028;2023-04-19T12:56:23;11.27;;;6.95;;
21243;SDS011;10780;50.942;4.028;2023-04-19T12:58:49;12.38;;;6.60;;
21243;SDS011;10780;50.942;4.028;2023-04-19T13:01:15;8.70;;;6.95;;
21243;SDS011;10780;50.942;4.028;2023-04-19T13:03:41;10.43;;;7.38;;
21243;SDS011;10780;50.942;4.028;2023-04-19T13:06:06;10.70;;;7.35;;
21243;SDS011;10780;50.942;4.028;2023-04-19T13:08:32;9.30;;;6.82;;
21243;SDS011;10780;50.942;4.028;2023-04-19T13:10:57;12.88;;;6.88;;
21243;SDS011;10780;50.942;4.028;2023-04-19T13:13:27;10.32;;;7.07;;
21243;SDS011;10780;50.942;4.028;2023-04-19T13:15:53;10.43;;;6.63;;
21243;SDS011;10780;50.942;4.028;2023-04-19T13:18:19;10.35;;;6.90;;
21243;SDS011;10780;50.942;4.028;2023-04-19T13:20:44;8.80;;;6.30;;
21243;SDS011;10780;50.942;4.028;2023-04-19T13:23:11;10.25;;;6.82;;
21243;SDS011;10780;50.942;4.028;2023-04-19T13:25:36;11.68;;;6.97;;
21243;SDS011;10780;50.942;4.028;2023-04-19T13:28:02;9.68;;;6.28;;
21243;SDS011;10780;50.942;4.028;2023-04-19T13:30:27;11.70;;;7.60;;
21243;SDS011;10780;50.942;4.028;2023-04-19T13:32:53;9.20;;;6.43;;
21243;SDS011;10780;50.942;4.028;2023-04-19T13:35:18;8.13;;;6.63;;
21243;SDS011;10780;50.942;4.028;2023-04-19T13:37:45;10.35;;;6.85;;
21243;SDS011;10780;50.942;4.028;2023-04-19T13:40:11;9.32;;;6.53;;
21243;SDS011;10780;50.942;4.028;2023-04-19T13:42:37;8.88;;;6.05;;
21243;SDS011;10780;50.942;4.028;2023-04-19T13:45:03;10.38;;;6.65;;
21243;SDS011;10780;50.942;4.028;2023-04-19T13:47:29;8.63;;;5.90;;
21243;SDS011;10780;50.942;4.028;2023-04-19T13:49:55;6.55;;;5.82;;
21243;SDS011;10780;50.942;4.028;2023-04-19T13:52:20;8.90;;;6.00;;
21243;SDS011;10780;50.942;4.028;2023-04-19T13:54:47;7.28;;;5.90;;
21243;SDS011;10780;50.942;4.028;2023-04-19T13:57:13;10.55;;;5.93;;
21243;SDS011;10780;50.942;4.028;2023-04-19T13:59:39;9.30;;;5.22;;
21243;SDS011;10780;50.942;4.028;2023-04-19T14:02:05;10.80;;;5.47;;
21243;SDS011;10780;50.942;4.028;2023-04-19T14:04:31;8.07;;;5.97;;
21243;SDS011;10780;50.942;4.028;2023-04-19T14:06:57;8.05;;;5.18;;
21243;SDS011;10780;50.942;4.028;2023-04-19T14:09:23;6.57;;;5.32;;
21243;SDS011;10780;50.942;4.028;2023-04-19T14:11:49;8.65;;;5.30;;
21243;SDS011;10780;50.942;4.028;2023-04-19T14:14:15;7.57;;;4.90;;
21243;SDS011;10780;50.942;4.028;2023-04-19T14:16:41;6.10;;;4.85;;
21243;SDS011;10780;50.942;4.028;2023-04-19T14:19:07;5.13;;;4.60;;
21243;SDS011;10780;50.942;4.028;2023-04-19T14:21:33;6.93;;;5.10;;
21243;SDS011;10780;50.942;4.028;2023-04-19T14:23:58;7.95;;;4.38;;
21243;SDS011;10780;50.942;4.028;2023-04-19T14:26:24;5.22;;;4.68;;
21243;SDS011;10780;50.942;4.028;2023-04-19T14:28:50;6.47;;;4.65;;
21243;SDS011;10780;50.942;4.028;2023-04-19T14:31:15;5.53;;;4.22;;
21243;SDS011;10780;50.942;4.028;2023-04-19T14:33:41;6.35;;;4.18;;
21243;SDS011;10780;50.942;4.028;2023-04-19T14:36:06;5.28;;;3.92;;
21243;SDS011;10780;50.942;4.028;2023-04-19T14:38:33;6.22;;;4.10;;
21243;SDS011;10780;50.942;4.028;2023-04-19T14:40:59;7.47;;;3.53;;
21243;SDS011;10780;50.942;4.028;2023-04-19T14:43:24;5.15;;;4.13;;
21243;SDS011;10780;50.942;4.028;2023-04-19T14:45:50;4.25;;;3.85;;
21243;SDS011;10780;50.942;4.028;2023-04-19T14:48:17;10.23;;;3.88;;
21243;SDS011;10780;50.942;4.028;2023-04-19T14:50:43;8.43;;;3.67;;